Terminal Aerodrome Forecast
Issued by NWS Tampa Bay Area, FL

Home | Current Version | Previous Version | Text Only | Print | Product List | Glossary On
Versions: 1 2 3 4 5 6 7 8 9 10 11 12
000
FTUS42 KTBW 212323
TAFFMY
TAF
KFMY 212323Z 2200/2224 05007KT P6SM FEW050
     FM220200 VRB04KT P6SM SCT250
     FM221400 05006KT P6SM SCT025 SCT250
     FM221800 05008KT P6SM VCTS SCT035CB=

USA.gov is the U.S. government's official web portal to all federal, state and local government web resources and services.